Time;durP1;ratioP1;P1;durP2;ratioP2;P2;SDS_P1;SDS_P2;PMS_P1;PMS_P2;Temp;Humidity;BMP_temperature;BMP_pressure;BME280_temperature;BME280_humidity;BME280_pressure;Samples;Min_cycle;Max_cycle;Signal;HPM_P1;HPM_P2
2023/07/07 00:02:09;;;;;;;;;;;;;;;24.57;56.15;99724.22;4505665;31;34515;-75
2023/07/07 00:04:42;;;;;;;;;;;;;;;24.50;56.11;99733.59;4498922;31;33521;-76
2023/07/07 00:07:11;;;;;;;;;;;;;;;24.40;56.46;99728.03;4502682;31;33180;-75
2023/07/07 00:09:40;;;;;;;;;;;;;;;24.39;56.86;99729.00;4492681;31;33439;-75
2023/07/07 00:12:16;;;;;;;;;;;;;;;24.49;56.39;99731.88;4498971;31;33926;-77
2023/07/07 00:14:49;;;;;;;;;;;;;;;24.54;55.52;99724.44;4496207;31;34527;-76
2023/07/07 00:17:18;;;;;;;;;;;;;;;24.47;56.10;99729.34;4495805;31;33044;-75
2023/07/07 00:19:47;;;;;;;;;;;;;;;24.44;56.42;99734.81;4493816;31;33860;-76
2023/07/07 00:22:16;;;;;;;;;;;;;;;24.59;55.41;99737.38;4496726;31;35033;-75
2023/07/07 00:24:47;;;;;;;;;;;;;;;24.41;56.33;99731.56;4508447;31;33980;-75
2023/07/07 00:27:16;;;;;;;;;;;;;;;24.32;56.65;99734.84;4509004;31;33517;-75
2023/07/07 00:29:48;;;;;;;;;;;;;;;24.17;58.32;99736.75;4494948;31;34434;-76
2023/07/07 00:32:19;;;;;;;;;;;;;;;24.42;56.82;99738.53;4494756;31;33868;-76
2023/07/07 00:34:50;;;;;;;;;;;;;;;24.34;57.14;99735.59;4500189;31;33545;-75
2023/07/07 00:37:21;;;;;;;;;;;;;;;24.22;58.28;99735.47;4499496;31;34050;-77
2023/07/07 00:39:55;;;;;;;;;;;;;;;24.15;58.14;99733.34;4494017;31;33449;-75
2023/07/07 00:42:24;;;;;;;;;;;;;;;24.36;57.44;99736.34;4494716;31;35155;-76
2023/07/07 00:45:06;;;;;;;;;;;;;;;24.51;57.13;99737.09;4495081;31;35194;-77
2023/07/07 00:47:40;;;;;;;;;;;;;;;24.22;58.65;99740.78;4499625;31;33362;-76
2023/07/07 00:50:09;;;;;;;;;;;;;;;24.37;57.54;99736.22;4495293;31;34430;-76
2023/07/07 00:52:44;;;;;;;;;;;;;;;24.22;57.59;99738.12;4494594;31;34266;-75
2023/07/07 00:55:15;;;;;;;;;;;;;;;24.14;58.74;99736.94;4493126;31;34914;-76
2023/07/07 00:57:47;;;;;;;;;;;;;;;24.21;58.05;99733.78;4497361;31;33932;-76
2023/07/07 01:00:16;;;;;;;;;;;;;;;24.29;57.28;99735.91;4506339;31;34358;-76
2023/07/07 01:02:52;;;;;;;;;;;;;;;24.26;58.24;99746.72;4498541;31;33921;-76
2023/07/07 01:05:25;;;;;;;;;;;;;;;24.35;58.00;99746.06;4498979;31;34115;-75
2023/07/07 01:07:54;;;;;;;;;;;;;;;24.27;57.71;99745.75;4494074;31;33963;-75
2023/07/07 01:10:26;;;;;;;;;;;;;;;24.33;57.11;99748.00;4493633;31;33717;-76
2023/07/07 01:12:55;;;;;;;;;;;;;;;24.13;58.93;99743.22;4499881;31;33914;-75
2023/07/07 01:15:24;;;;;;;;;;;;;;;24.03;58.52;99748.28;4498967;31;33977;-75
2023/07/07 01:17:59;;;;;;;;;;;;;;;24.25;56.90;99745.03;4494238;31;33128;-77
2023/07/07 01:20:31;;;;;;;;;;;;;;;24.18;57.47;99747.25;4495053;31;34955;-76
2023/07/07 01:23:18;;;;;;;;;;;;;;;24.02;58.20;99743.97;4508260;31;34110;-77
2023/07/07 01:25:59;;;;;;;;;;;;;;;24.01;57.82;99742.25;4499436;31;34380;-75
2023/07/07 01:28:42;;;;;;;;;;;;;;;23.72;58.88;99745.03;4494188;31;33789;-75
2023/07/07 01:31:20;;;;;;;;;;;;;;;23.59;59.46;99746.81;4493792;31;34185;-76
2023/07/07 01:33:49;;;;;;;;;;;;;;;23.73;58.89;99749.44;4496831;31;33630;-75
2023/07/07 01:36:19;;;;;;;;;;;;;;;23.72;59.05;99749.47;4503905;31;34302;-76
2023/07/07 01:38:48;;;;;;;;;;;;;;;23.79;58.43;99748.16;4500737;31;33353;-76
2023/07/07 01:41:21;;;;;;;;;;;;;;;23.78;58.14;99751.78;4494312;31;33471;-76
2023/07/07 01:43:50;;;;;;;;;;;;;;;23.71;58.37;99751.28;4496474;31;34465;-77
2023/07/07 01:46:23;;;;;;;;;;;;;;;23.57;59.80;99749.56;4493963;31;33683;-76
2023/07/07 01:48:53;;;;;;;;;;;;;;;23.53;60.49;99757.78;4493605;31;32929;-76
2023/07/07 01:51:27;;;;;;;;;;;;;;;23.70;59.65;99757.53;4499077;31;33052;-77
2023/07/07 01:53:55;;;;;;;;;;;;;;;23.42;60.28;99748.75;4494992;31;33891;-75
2023/07/07 01:56:26;;;;;;;;;;;;;;;23.61;60.28;99742.25;4496191;31;34309;-76
2023/07/07 01:58:54;;;;;;;;;;;;;;;23.50;60.78;99750.91;4493092;31;33422;-75
2023/07/07 02:01:27;;;;;;;;;;;;;;;23.50;60.48;99747.41;4498818;31;34655;-77
2023/07/07 02:03:56;;;;;;;;;;;;;;;23.65;58.56;99754.34;4494210;31;34830;-76
2023/07/07 02:06:24;;;;;;;;;;;;;;;23.77;58.13;99750.06;4496120;31;33701;-76
2023/07/07 02:08:54;;;;;;;;;;;;;;;23.70;58.23;99751.38;4492883;31;32747;-76
2023/07/07 02:11:23;;;;;;;;;;;;;;;23.36;60.84;99746.50;4494313;31;34454;-76
2023/07/07 02:13:57;;;;;;;;;;;;;;;23.34;59.91;99748.44;4498606;31;33477;-77
2023/07/07 02:16:31;;;;;;;;;;;;;;;23.64;58.61;99742.91;4494898;31;34118;-75
2023/07/07 02:19:02;;;;;;;;;;;;;;;23.58;59.00;99745.09;4508451;31;34105;-75
2023/07/07 02:21:31;;;;;;;;;;;;;;;23.39;60.01;99748.97;4509506;31;34632;-75
2023/07/07 02:24:02;;;;;;;;;;;;;;;23.39;59.68;99741.03;4514749;31;34768;-75
2023/07/07 02:26:33;;;;;;;;;;;;;;;23.55;59.03;99742.66;4502365;31;34175;-75
2023/07/07 02:29:02;;;;;;;;;;;;;;;23.42;59.71;99746.12;4493403;31;33538;-76
2023/07/07 02:31:39;;;;;;;;;;;;;;;23.51;58.89;99744.69;4492864;31;34277;-78
2023/07/07 02:34:08;;;;;;;;;;;;;;;23.43;59.54;99752.25;4494664;31;34270;-76
2023/07/07 02:36:40;;;;;;;;;;;;;;;23.35;60.60;99747.47;4498398;31;34222;-77
2023/07/07 02:39:09;;;;;;;;;;;;;;;23.38;60.33;99754.34;4507244;31;33520;-76
2023/07/07 02:41:42;;;;;;;;;;;;;;;23.66;58.55;99749.91;4511851;31;34181;-75
2023/07/07 02:44:11;;;;;;;;;;;;;;;23.46;59.33;99756.50;4502660;31;34086;-76
2023/07/07 02:46:43;;;;;;;;;;;;;;;23.46;59.30;99751.19;4501998;31;33962;-77
2023/07/07 02:49:12;;;;;;;;;;;;;;;23.54;59.04;99748.91;4498357;31;32445;-75
2023/07/07 02:51:48;;;;;;;;;;;;;;;23.25;60.53;99759.59;4493900;31;33382;-76
2023/07/07 02:54:21;;;;;;;;;;;;;;;23.24;60.51;99751.75;4496378;31;33890;-76
2023/07/07 02:56:49;;;;;;;;;;;;;;;23.35;59.86;99758.06;4492899;31;33966;-76
2023/07/07 02:59:26;;;;;;;;;;;;;;;23.36;59.76;99765.03;4507428;31;34468;-76
2023/07/07 03:01:56;;;;;;;;;;;;;;;23.38;59.65;99763.13;4492255;31;34828;-76
2023/07/07 03:04:26;;;;;;;;;;;;;;;23.21;60.35;99766.03;4493373;31;34235;-74
2023/07/07 03:06:56;;;;;;;;;;;;;;;23.43;59.52;99774.28;4496315;31;34300;-76
2023/07/07 03:09:26;;;;;;;;;;;;;;;23.16;60.91;99770.78;4498167;31;32932;-76
2023/07/07 03:11:56;;;;;;;;;;;;;;;23.51;59.47;99768.50;4502239;31;33874;-75
2023/07/07 03:14:28;;;;;;;;;;;;;;;23.11;60.99;99773.72;4502917;31;33914;-76
2023/07/07 03:17:00;;;;;;;;;;;;;;;23.46;59.55;99778.53;4495344;31;34860;-76
2023/07/07 03:19:36;;;;;;;;;;;;;;;23.27;59.84;99773.59;4498191;31;34604;-75
2023/07/07 03:22:23;;;;;;;;;;;;;;;23.28;60.19;99777.09;4509681;31;34863;-75
2023/07/07 03:25:00;;;;;;;;;;;;;;;23.23;60.46;99781.84;4501504;31;34576;-74
2023/07/07 03:27:38;;;;;;;;;;;;;;;23.23;60.11;99787.97;4494674;31;33491;-77
2023/07/07 03:30:10;;;;;;;;;;;;;;;23.41;58.53;99785.91;4494989;31;33282;-74
2023/07/07 03:32:43;;;;;;;;;;;;;;;23.25;59.93;99790.53;4503527;31;33831;-77
2023/07/07 03:35:11;;;;;;;;;;;;;;;23.34;59.19;99790.78;4510176;31;33916;-76
2023/07/07 03:37:41;;;;;;;;;;;;;;;23.15;60.21;99793.75;4501048;31;34085;-75
2023/07/07 03:40:10;;;;;;;;;;;;;;;23.32;59.52;99797.97;4494244;31;32537;-76
2023/07/07 03:42:39;;;;;;;;;;;;;;;23.43;59.29;99803.41;4504127;31;34448;-74
2023/07/07 03:45:10;;;;;;;;;;;;;;;23.33;59.39;99806.75;4508203;31;34209;-75
2023/07/07 03:47:39;;;;;;;;;;;;;;;23.33;58.20;99806.75;4500841;31;34460;-74
2023/07/07 03:50:10;;;;;;;;;;;;;;;23.50;56.94;99810.97;4495824;31;33082;-76
2023/07/07 03:55:12;;;;;;;;;;;;;;;23.26;57.72;99816.03;4499661;31;34206;-76
2023/07/07 03:57:41;;;;;;;;;;;;;;;23.19;57.96;99811.13;4503729;31;34966;-76
2023/07/07 04:00:11;;;;;;;;;;;;;;;23.10;58.27;99811.72;4502041;31;32841;-76
2023/07/07 04:02:43;;;;;;;;;;;;;;;23.08;57.17;99815.41;4510091;31;34580;-76
2023/07/07 04:05:14;;;;;;;;;;;;;;;22.86;59.34;99821.16;4501588;31;34790;-74
2023/07/07 04:07:46;;;;;;;;;;;;;;;23.06;58.09;99820.78;4495606;31;34882;-76
2023/07/07 04:10:16;;;;;;;;;;;;;;;23.11;58.27;99825.81;4516484;31;33379;-74
2023/07/07 04:12:45;;;;;;;;;;;;;;;22.96;59.15;99824.94;4514625;31;33824;-76
2023/07/07 04:15:18;;;;;;;;;;;;;;;22.93;59.42;99828.63;4513436;31;34514;-75
2023/07/07 04:17:48;;;;;;;;;;;;;;;23.04;58.78;99825.34;4499223;31;34021;-76
2023/07/07 04:20:19;;;;;;;;;;;;;;;23.06;58.96;99833.19;4493970;31;32528;-77
2023/07/07 04:22:54;;;;;;;;;;;;;;;23.17;58.62;99838.63;4502160;31;34008;-75
2023/07/07 04:25:22;;;;;;;;;;;;;;;23.34;57.66;99835.78;4500117;31;33735;-75
2023/07/07 04:27:52;;;;;;;;;;;;;;;23.52;57.11;99838.19;4494653;31;34204;-76
2023/07/07 04:30:21;;;;;;;;;;;;;;;23.45;57.49;99842.19;4498207;31;34112;-76
2023/07/07 04:32:56;;;;;;;;;;;;;;;23.58;56.84;99840.44;4508101;31;33918;-77
2023/07/07 04:35:26;;;;;;;;;;;;;;;23.61;56.67;99834.97;4513464;31;35017;-77
2023/07/07 04:37:55;;;;;;;;;;;;;;;23.71;56.78;99846.66;4499801;31;33434;-75
2023/07/07 04:40:24;;;;;;;;;;;;;;;23.67;56.24;99845.12;4493960;31;33370;-76
2023/07/07 04:42:59;;;;;;;;;;;;;;;24.20;54.77;99845.22;4500745;31;35560;-75
2023/07/07 04:45:29;;;;;;;;;;;;;;;24.45;53.54;99850.56;4514099;31;34030;-76
2023/07/07 04:47:58;;;;;;;;;;;;;;;24.46;53.00;99852.28;4501713;31;36739;-75
2023/07/07 04:50:28;;;;;;;;;;;;;;;24.49;52.97;99854.72;4500522;31;33577;-76
2023/07/07 04:52:58;;;;;;;;;;;;;;;24.25;53.98;99854.56;4496050;31;33599;-75
2023/07/07 04:55:27;;;;;;;;;;;;;;;24.44;52.76;99855.97;4494140;31;35045;-76
2023/07/07 04:57:56;;;;;;;;;;;;;;;24.17;54.29;99848.09;4502547;31;34373;-77
2023/07/07 05:00:32;;;;;;;;;;;;;;;24.37;52.53;99850.22;4502332;31;33968;-76
2023/07/07 05:03:03;;;;;;;;;;;;;;;24.51;51.79;99851.97;4494978;31;34682;-76
2023/07/07 05:05:33;;;;;;;;;;;;;;;24.40;51.53;99849.16;4504733;31;33290;-76
2023/07/07 05:08:06;;;;;;;;;;;;;;;24.34;51.74;99857.56;4510873;31;33263;-76
2023/07/07 05:10:36;;;;;;;;;;;;;;;24.02;53.84;99855.25;4498954;31;32809;-76
2023/07/07 05:13:05;;;;;;;;;;;;;;;24.21;53.97;99855.72;4503703;31;35205;-75
2023/07/07 05:15:36;;;;;;;;;;;;;;;24.45;52.55;99850.56;4513043;31;34357;-76
2023/07/07 05:18:08;;;;;;;;;;;;;;;24.17;53.79;99861.34;4493365;31;33652;-75
2023/07/07 05:20:38;;;;;;;;;;;;;;;24.19;53.53;99859.44;4504108;31;33908;-75
2023/07/07 05:23:10;;;;;;;;;;;;;;;24.05;54.37;99863.00;4499305;31;34123;-75
2023/07/07 05:25:38;;;;;;;;;;;;;;;24.04;54.42;99871.87;4495710;31;34898;-76
2023/07/07 05:28:10;;;;;;;;;;;;;;;24.27;52.14;99865.06;4505369;31;34463;-77
2023/07/07 05:30:40;;;;;;;;;;;;;;;23.74;53.81;99866.81;4503238;31;33911;-75
2023/07/07 05:33:10;;;;;;;;;;;;;;;23.94;54.08;99870.81;4498328;31;34005;-76
2023/07/07 05:35:49;;;;;;;;;;;;;;;24.19;51.91;99868.25;4494998;31;33647;-76
2023/07/07 05:38:21;;;;;;;;;;;;;;;23.95;53.17;99876.00;4493890;31;34083;-76
2023/07/07 05:40:56;;;;;;;;;;;;;;;23.93;52.10;99877.91;4494503;31;33488;-77
2023/07/07 05:43:26;;;;;;;;;;;;;;;24.09;52.33;99875.12;4498922;31;33789;-77
2023/07/07 05:45:57;;;;;;;;;;;;;;;24.03;52.09;99879.00;4493789;31;33679;-75
2023/07/07 05:48:27;;;;;;;;;;;;;;;24.07;53.05;99882.31;4493387;31;34016;-76
2023/07/07 05:50:58;;;;;;;;;;;;;;;24.72;50.51;99875.31;4498901;31;33269;-76
2023/07/07 05:53:28;;;;;;;;;;;;;;;24.57;50.54;99878.06;4505483;31;33337;-75
2023/07/07 05:56:03;;;;;;;;;;;;;;;24.62;50.47;99883.94;4500007;31;33694;-75
2023/07/07 05:58:32;;;;;;;;;;;;;;;24.48;50.94;99876.91;4494536;31;34807;-77
2023/07/07 06:01:13;;;;;;;;;;;;;;;24.52;51.30;99882.84;4493361;31;32808;-76
2023/07/07 06:03:46;;;;;;;;;;;;;;;24.82;49.79;99882.53;4497339;31;34185;-76
2023/07/07 06:06:16;;;;;;;;;;;;;;;25.04;49.09;99891.66;4493208;31;35011;-76
2023/07/07 06:08:52;;;;;;;;;;;;;;;25.27;49.14;99888.28;4498744;31;34404;-77
2023/07/07 06:11:20;;;;;;;;;;;;;;;25.36;48.46;99897.38;4493213;31;33825;-75
2023/07/07 06:13:52;;;;;;;;;;;;;;;25.36;47.63;99893.87;4498644;31;33637;-76
2023/07/07 06:16:22;;;;;;;;;;;;;;;25.13;50.10;99897.19;4508906;31;33950;-77
2023/07/07 06:18:58;;;;;;;;;;;;;;;25.29;49.68;99904.09;4512641;31;33671;-77
2023/07/07 06:21:31;;;;;;;;;;;;;;;24.68;45.54;99903.88;4514297;31;32962;-77
2023/07/07 06:24:00;;;;;;;;;;;;;;;25.63;42.20;99901.66;4494425;31;34829;-77
2023/07/07 06:26:29;;;;;;;;;;;;;;;25.44;44.57;99910.09;4496790;31;33860;-76
2023/07/07 06:28:58;;;;;;;;;;;;;;;25.05;45.08;99906.62;4493622;31;33807;-76
2023/07/07 06:31:28;;;;;;;;;;;;;;;24.66;45.69;99917.22;4499216;31;33522;-77
2023/07/07 06:34:01;;;;;;;;;;;;;;;24.89;47.70;99909.53;4492793;31;33969;-76
2023/07/07 06:36:34;;;;;;;;;;;;;;;25.28;45.88;99910.37;4493999;31;34128;-78
2023/07/07 06:39:03;;;;;;;;;;;;;;;25.72;42.36;99915.13;4492031;31;33837;-77
2023/07/07 06:41:37;;;;;;;;;;;;;;;25.49;42.68;99918.59;4496523;31;33214;-76
2023/07/07 06:44:08;;;;;;;;;;;;;;;24.89;44.58;99917.47;4507479;31;33081;-78
2023/07/07 06:46:40;;;;;;;;;;;;;;;25.34;43.96;99921.38;4501548;31;33923;-75
2023/07/07 06:49:09;;;;;;;;;;;;;;;25.53;43.97;99920.91;4494728;31;34345;-75
2023/07/07 06:51:46;;;;;;;;;;;;;;;25.37;43.84;99917.69;4497650;31;33050;-76
2023/07/07 06:54:18;;;;;;;;;;;;;;;25.87;41.64;99920.31;4499388;31;34396;-77
2023/07/07 06:56:47;;;;;;;;;;;;;;;25.61;42.14;99927.50;4499637;31;33719;-77
2023/07/07 06:59:19;;;;;;;;;;;;;;;25.27;43.50;99925.47;4494846;31;34953;-76
2023/07/07 07:01:47;;;;;;;;;;;;;;;25.18;43.15;99925.22;4498421;31;32931;-77
2023/07/07 07:04:25;;;;;;;;;;;;;;;25.26;44.39;99925.56;4495004;31;33901;-76
2023/07/07 07:06:55;;;;;;;;;;;;;;;25.44;41.87;99931.34;4507702;31;34372;-75
2023/07/07 07:09:24;;;;;;;;;;;;;;;25.76;40.72;99926.41;4496545;31;35155;-77
2023/07/07 07:11:53;;;;;;;;;;;;;;;25.35;42.35;99927.56;4498242;31;33822;-77
2023/07/07 07:14:23;;;;;;;;;;;;;;;25.69;42.19;99935.78;4494606;31;34283;-76
2023/07/07 07:16:53;;;;;;;;;;;;;;;25.72;42.60;99938.19;4496230;31;34515;-77
2023/07/07 07:19:26;;;;;;;;;;;;;;;26.12;41.56;99933.50;4511780;31;34499;-76
2023/07/07 07:21:56;;;;;;;;;;;;;;;26.26;41.34;99940.44;4494708;31;33538;-78
2023/07/07 07:24:29;;;;;;;;;;;;;;;26.17;42.00;99943.81;4495319;31;33838;-76
2023/07/07 07:26:58;;;;;;;;;;;;;;;26.16;42.12;99944.75;4496673;31;33933;-77
2023/07/07 07:29:29;;;;;;;;;;;;;;;26.06;42.20;99943.75;4499145;31;35145;-77
2023/07/07 07:31:57;;;;;;;;;;;;;;;25.94;42.79;99949.00;4492954;31;34046;-75
2023/07/07 07:34:26;;;;;;;;;;;;;;;25.86;41.65;99956.69;4499872;31;33496;-76
2023/07/07 07:36:59;;;;;;;;;;;;;;;26.47;41.33;99947.78;4500508;31;33503;-76
2023/07/07 07:39:33;;;;;;;;;;;;;;;26.61;40.90;99950.28;4501711;31;33264;-75
2023/07/07 07:42:02;;;;;;;;;;;;;;;26.96;39.95;99955.56;4513054;31;33097;-76
2023/07/07 07:44:35;;;;;;;;;;;;;;;26.89;40.39;99949.00;4496812;31;33705;-77
2023/07/07 07:47:05;;;;;;;;;;;;;;;27.17;40.25;99955.69;4493963;31;35097;-77
2023/07/07 07:49:35;;;;;;;;;;;;;;;27.15;40.12;99960.31;4492529;31;34935;-76
2023/07/07 07:52:06;;;;;;;;;;;;;;;27.41;40.09;99963.63;4500246;31;32885;-77
2023/07/07 07:54:35;;;;;;;;;;;;;;;27.39;39.04;99962.87;4498203;31;33732;-76
2023/07/07 07:57:05;;;;;;;;;;;;;;;27.38;39.23;99965.69;4494243;31;34674;-77
2023/07/07 07:59:34;;;;;;;;;;;;;;;27.70;38.41;99964.94;4494283;31;34368;-76
2023/07/07 08:02:05;;;;;;;;;;;;;;;27.67;37.73;99961.53;4494141;31;33424;-76
2023/07/07 08:04:34;;;;;;;;;;;;;;;27.72;37.41;99973.66;4500045;31;34474;-78
2023/07/07 08:07:06;;;;;;;;;;;;;;;27.93;37.32;99963.94;4493594;31;35023;-78
2023/07/07 08:09:43;;;;;;;;;;;;;;;27.41;38.09;99962.78;4494228;31;35288;-77
2023/07/07 08:12:11;;;;;;;;;;;;;;;27.64;37.61;99969.78;4494461;31;31247;-77
2023/07/07 08:14:43;;;;;;;;;;;;;;;28.14;36.40;99971.16;4500284;31;34217;-78
2023/07/07 08:17:13;;;;;;;;;;;;;;;27.61;38.43;99962.03;4498926;31;33791;-76
2023/07/07 08:19:44;;;;;;;;;;;;;;;28.19;36.99;99971.63;4493603;31;34007;-77
2023/07/07 08:22:14;;;;;;;;;;;;;;;28.28;37.33;99971.72;4505837;31;33521;-76
2023/07/07 08:24:51;;;;;;;;;;;;;;;27.66;38.55;99973.16;4500291;31;34856;-75
2023/07/07 08:27:22;;;;;;;;;;;;;;;28.25;36.73;99973.81;4499271;31;34425;-77
2023/07/07 08:29:54;;;;;;;;;;;;;;;28.54;36.24;99975.88;4503452;31;33643;-77
2023/07/07 08:32:27;;;;;;;;;;;;;;;28.53;36.80;99984.88;4494945;31;33844;-77
2023/07/07 08:34:57;;;;;;;;;;;;;;;28.05;36.20;99978.97;4497730;31;34213;-77
2023/07/07 08:37:30;;;;;;;;;;;;;;;28.17;35.62;99978.91;4495148;31;34718;-79
2023/07/07 08:39:59;;;;;;;;;;;;;;;27.89;36.98;99981.19;4501257;31;35097;-75
2023/07/07 08:42:32;;;;;;;;;;;;;;;28.19;36.65;99982.31;4492824;31;34076;-78
2023/07/07 08:45:01;;;;;;;;;;;;;;;27.78;36.08;99982.00;4494012;31;34670;-76
2023/07/07 08:47:40;;;;;;;;;;;;;;;28.24;36.95;99980.09;4497267;31;34143;-76
2023/07/07 08:50:13;;;;;;;;;;;;;;;28.02;36.33;99981.84;4494615;31;33860;-78
2023/07/07 08:53:00;;;;;;;;;;;;;;;28.24;36.36;99990.78;4501826;31;33777;-76
2023/07/07 08:55:35;;;;;;;;;;;;;;;28.27;36.65;99990.50;4496701;31;33895;-76
2023/07/07 08:58:09;;;;;;;;;;;;;;;28.39;35.91;99984.19;4493384;31;33960;-75
2023/07/07 09:01:00;;;;;;;;;;;;;;;28.56;35.58;99989.94;4492720;31;34301;-78
2023/07/07 09:03:38;;;;;;;;;;;;;;;28.42;36.47;99993.75;4496976;31;32980;-77
2023/07/07 09:06:17;;;;;;;;;;;;;;;28.50;35.70;99991.31;4500358;31;34045;-77
2023/07/07 09:08:50;;;;;;;;;;;;;;;28.47;35.80;99989.75;4498479;31;35109;-78
2023/07/07 09:11:21;;;;;;;;;;;;;;;28.23;35.42;100000.59;4498876;31;33972;-77
2023/07/07 09:13:55;;;;;;;;;;;;;;;28.93;33.83;99983.19;4498218;31;33224;-76
2023/07/07 09:16:25;;;;;;;;;;;;;;;29.00;34.03;99988.03;4495695;31;33165;-76
2023/07/07 09:19:04;;;;;;;;;;;;;;;29.14;33.66;99985.06;4492331;31;33868;-79
2023/07/07 09:21:35;;;;;;;;;;;;;;;28.83;33.96;99994.81;4510274;31;33445;-76
2023/07/07 09:24:09;;;;;;;;;;;;;;;28.90;33.01;99988.81;4504905;31;33138;-78
2023/07/07 09:26:42;;;;;;;;;;;;;;;29.26;33.79;99992.00;4508784;31;33517;-79
2023/07/07 09:29:17;;;;;;;;;;;;;;;29.53;34.01;99999.44;4500057;31;35113;-77
2023/07/07 09:31:46;;;;;;;;;;;;;;;29.64;33.01;99989.62;4507792;31;33914;-79
2023/07/07 09:34:23;;;;;;;;;;;;;;;29.25;33.25;99994.81;4504068;31;34244;-76
2023/07/07 09:36:54;;;;;;;;;;;;;;;29.60;31.99;99989.06;4492981;31;35433;-78
2023/07/07 09:39:37;;;;;;;;;;;;;;;29.67;32.62;99992.03;4496237;31;33596;-79
2023/07/07 09:42:14;;;;;;;;;;;;;;;29.23;32.76;99997.59;4504751;31;34166;-76
2023/07/07 09:44:54;;;;;;;;;;;;;;;29.80;31.26;99990.00;4494793;31;32558;-77
2023/07/07 09:47:29;;;;;;;;;;;;;;;28.89;33.08;100003.13;4500166;31;35072;-77
2023/07/07 09:49:59;;;;;;;;;;;;;;;29.34;31.48;99992.19;4493575;31;34165;-76
2023/07/07 09:52:40;;;;;;;;;;;;;;;29.01;32.63;99995.06;4495459;31;33885;-76
2023/07/07 09:55:15;;;;;;;;;;;;;;;29.43;32.04;99995.88;4498418;31;33010;-76
2023/07/07 09:57:52;;;;;;;;;;;;;;;29.71;32.66;99997.00;4493264;31;34329;-76
2023/07/07 10:00:21;;;;;;;;;;;;;;;29.78;30.59;99994.63;4500376;31;34121;-77
2023/07/07 10:03:17;;;;;;;;;;;;;;;29.44;31.50;99994.06;4494881;31;35829;-77
2023/07/07 10:05:46;;;;;;;;;;;;;;;29.32;31.72;99988.78;4505731;31;34166;-76
2023/07/07 10:08:16;;;;;;;;;;;;;;;28.50;32.15;99996.66;4495975;31;34467;-76
2023/07/07 10:10:46;;;;;;;;;;;;;;;29.05;32.07;99988.47;4507649;31;33791;-78
2023/07/07 10:13:21;;;;;;;;;;;;;;;29.59;29.89;99994.53;4499029;31;33128;-78
2023/07/07 10:15:53;;;;;;;;;;;;;;;29.75;30.49;99995.75;4494161;31;32719;-79
2023/07/07 10:18:31;;;;;;;;;;;;;;;29.87;30.64;99993.81;4498802;31;33597;-76
2023/07/07 10:21:18;;;;;;;;;;;;;;;30.11;31.67;99997.94;4497538;31;34065;-76
2023/07/07 10:23:50;;;;;;;;;;;;;;;30.25;29.50;99996.69;4503091;31;33509;-76
2023/07/07 10:26:19;;;;;;;;;;;;;;;30.48;29.64;99994.63;4504986;31;34009;-76
2023/07/07 10:28:58;;;;;;;;;;;;;;;30.72;27.99;100000.37;4499772;31;33671;-77
2023/07/07 10:31:27;;;;;;;;;;;;;;;30.95;28.09;99992.94;4501196;31;34401;-78
2023/07/07 10:33:57;;;;;;;;;;;;;;;30.60;27.37;99999.69;4501497;31;33217;-76
2023/07/07 10:36:30;;;;;;;;;;;;;;;30.74;27.64;99987.69;4492739;31;33731;-76
2023/07/07 10:38:59;;;;;;;;;;;;;;;31.17;27.72;99988.19;4498830;31;33783;-78
2023/07/07 10:41:31;;;;;;;;;;;;;;;31.20;26.83;99991.44;4492397;31;35240;-77
2023/07/07 10:44:00;;;;;;;;;;;;;;;30.92;25.64;99978.94;4494621;31;34015;-77
2023/07/07 10:46:29;;;;;;;;;;;;;;;31.15;26.05;99982.16;4495864;31;32858;-75
2023/07/07 10:49:04;;;;;;;;;;;;;;;31.47;25.82;99984.47;4493705;31;33439;-76
2023/07/07 10:51:37;;;;;;;;;;;;;;;30.92;26.35;99987.00;4497283;31;34034;-76
2023/07/07 10:54:07;;;;;;;;;;;;;;;31.29;24.95;99980.81;4492867;31;34382;-78
2023/07/07 10:56:38;;;;;;;;;;;;;;;31.60;24.54;99970.69;4494713;31;33644;-78
2023/07/07 10:59:26;;;;;;;;;;;;;;;31.79;25.53;99975.12;4492231;31;34805;-77
2023/07/07 11:01:59;;;;;;;;;;;;;;;31.47;25.65;99979.09;4490626;31;33985;-77
2023/07/07 11:04:44;;;;;;;;;;;;;;;31.63;25.57;99979.31;4493737;31;34301;-79
2023/07/07 11:07:17;;;;;;;;;;;;;;;30.02;27.38;99982.72;4493577;31;33908;-77
2023/07/07 11:09:57;;;;;;;;;;;;;;;30.55;26.08;99983.19;4491878;31;33712;-77
2023/07/07 11:12:29;;;;;;;;;;;;;;;30.95;25.73;99974.16;4493830;31;34492;-78
2023/07/07 11:15:06;;;;;;;;;;;;;;;31.04;25.46;99978.63;4493030;31;33978;-76
2023/07/07 11:17:39;;;;;;;;;;;;;;;31.11;25.40;99973.53;4499337;31;33525;-76
2023/07/07 11:20:33;;;;;;;;;;;;;;;31.06;25.07;99974.97;4492584;31;34765;-78
2023/07/07 11:23:06;;;;;;;;;;;;;;;31.67;25.50;99969.94;4477999;31;34255;-76
2023/07/07 11:25:35;;;;;;;;;;;;;;;32.12;27.29;99973.66;4497445;31;34900;-76
2023/07/07 11:28:06;;;;;;;;;;;;;;;32.21;25.21;99971.88;4492276;31;33115;-76
2023/07/07 11:30:38;;;;;;;;;;;;;;;31.89;24.78;99968.72;4497832;31;34400;-76
2023/07/07 11:33:11;;;;;;;;;;;;;;;30.88;25.50;99967.69;4490410;31;33693;-76
2023/07/07 11:35:50;;;;;;;;;;;;;;;31.36;26.08;99966.66;4495964;31;34402;-76
2023/07/07 11:38:31;;;;;;;;;;;;;;;31.59;26.03;99974.38;4492632;31;32295;-76
2023/07/07 11:41:03;;;;;;;;;;;;;;;31.41;25.83;99977.84;4494538;31;33972;-78
2023/07/07 11:43:47;;;;;;;;;;;;;;;31.97;25.88;99977.84;4505626;31;36208;-77
2023/07/07 11:46:24;;;;;;;;;;;;;;;32.22;24.14;99973.59;4500332;31;33827;-75
2023/07/07 11:48:55;;;;;;;;;;;;;;;31.96;25.62;99974.31;4496254;31;33194;-76
2023/07/07 11:51:33;;;;;;;;;;;;;;;32.54;24.40;99967.69;4493830;31;33590;-78
2023/07/07 11:54:25;;;;;;;;;;;;;;;31.93;25.25;99968.41;4495672;31;34133;-76
2023/07/07 11:57:07;;;;;;;;;;;;;;;32.22;24.31;99974.44;4494027;31;33967;-76
2023/07/07 12:00:00;;;;;;;;;;;;;;;31.81;25.17;99963.25;4499608;31;32551;-76
2023/07/07 12:02:32;;;;;;;;;;;;;;;31.02;25.91;99969.87;4499580;31;33899;-79
2023/07/07 12:05:03;;;;;;;;;;;;;;;30.28;27.22;99959.00;4495377;31;34451;-78
2023/07/07 12:07:34;;;;;;;;;;;;;;;30.77;26.15;99954.44;4493558;31;33760;-76
2023/07/07 12:10:14;;;;;;;;;;;;;;;30.81;26.65;99950.47;4494462;31;34140;-76
2023/07/07 12:12:45;;;;;;;;;;;;;;;30.85;26.14;99956.41;4499533;31;34140;-75
2023/07/07 12:15:15;;;;;;;;;;;;;;;30.45;26.72;99955.59;4494304;31;33933;-79
2023/07/07 12:17:49;;;;;;;;;;;;;;;30.17;26.97;99954.56;4496189;31;34544;-76
2023/07/07 12:20:19;;;;;;;;;;;;;;;30.79;25.94;99949.78;4492153;31;33480;-78
2023/07/07 12:22:51;;;;;;;;;;;;;;;30.35;26.61;99950.25;4485611;31;33468;-78
2023/07/07 12:25:25;;;;;;;;;;;;;;;30.23;26.53;99951.34;4498420;31;33943;-76
2023/07/07 12:27:56;;;;;;;;;;;;;;;30.98;25.40;99952.44;4498439;31;34917;-79
2023/07/07 12:30:28;;;;;;;;;;;;;;;31.28;24.71;99946.97;4493862;31;33037;-76
2023/07/07 12:33:03;;;;;;;;;;;;;;;31.44;25.59;99945.38;4494371;31;34071;-77
2023/07/07 12:35:36;;;;;;;;;;;;;;;31.85;25.86;99951.22;4497237;31;35097;-77
2023/07/07 12:38:14;;;;;;;;;;;;;;;32.64;24.08;99946.13;4463339;31;1206011;-77
2023/07/07 12:40:44;;;;;;;;;;;;;;;32.23;24.17;99949.25;4490753;31;33186;-77
2023/07/07 12:43:17;;;;;;;;;;;;;;;32.33;24.21;99938.47;4490967;31;34416;-77
2023/07/07 12:45:46;;;;;;;;;;;;;;;32.05;24.93;99948.44;4492481;31;34420;-76
2023/07/07 12:48:20;;;;;;;;;;;;;;;32.57;24.86;99942.38;4494175;31;34132;-76
2023/07/07 12:50:49;;;;;;;;;;;;;;;32.55;24.67;99941.66;4501862;31;33777;-77
2023/07/07 12:53:21;;;;;;;;;;;;;;;32.55;24.11;99938.97;4502968;31;34150;-77
2023/07/07 12:56:06;;;;;;;;;;;;;;;32.73;24.73;99946.00;4500433;31;35004;-76
2023/07/07 12:58:44;;;;;;;;;;;;;;;32.98;23.72;99931.91;4491794;31;33827;-76
2023/07/07 13:01:27;;;;;;;;;;;;;;;32.70;24.23;99937.44;4494553;31;32285;-76
2023/07/07 13:04:05;;;;;;;;;;;;;;;32.47;25.17;99932.53;4499580;31;33984;-76
2023/07/07 13:06:36;;;;;;;;;;;;;;;32.45;24.74;99937.22;4499508;31;33751;-77
2023/07/07 13:09:20;;;;;;;;;;;;;;;32.12;25.10;99936.09;4494179;31;35186;-77
2023/07/07 13:11:53;;;;;;;;;;;;;;;32.31;24.28;99933.25;4494440;31;33775;-78
2023/07/07 13:14:43;;;;;;;;;;;;;;;31.75;25.06;99937.03;4496049;31;34006;-77
2023/07/07 13:17:13;;;;;;;;;;;;;;;31.45;25.21;99933.66;4483318;31;33553;-76